FW2828 Weather Reports


Display with metric or nautical units.
time (UTC)temp
F
wind
direction
speed
MPH
gust
MPH
rain 1hr
in
rain 24hr
in
rain mn
in
humidity
%
barometer
mb
20190526162020 57 348 1.0 4.0 0.00 0.07 0.01 92 1010.4
20190526160518 54 67 0.0 2.0 0.00 0.07 0.01 97 1010.3
20190526155020 51 245 0.0 3.0 0.00 0.07 0.01 98 1010.3
20190526153517 49 284 0.0 3.0 0.00 0.07 0.01 99 1010.4
20190526152020 48 360 0.0 3.0 0.00 0.07 0.01 99 1010.3
20190526150518 48 26 0.0 1.0 0.00 0.07 0.01 99 1010.1
20190526145020 47 91 0.0 1.0 0.00 0.07 0.01 99 1010.0
20190526143518 46 160 0.0 2.0 0.00 0.07 0.01 99 1009.9
20190526142021 46 134 0.0 2.0 0.00 0.07 0.01 99 1009.9
20190526140518 45 90 0.0 2.0 0.00 0.07 0.01 99 1009.7
20190526135020 45 90 0.0 1.0 0.00 0.07 0.01 99 1009.7
20190526133518 45 350 0.0 2.0 0.00 0.07 0.01 99 1009.6
20190526132020 44 211 0.0 2.0 0.00 0.07 0.01 99 1009.6
20190526130520 44 360 0.0 1.0 0.00 0.07 0.01 99 1009.5
20190526125019 44 360 0.0 0.0 0.00 0.07 0.01 99 1009.4
20190526123517 44 360 0.0 0.0 0.00 0.07 0.01 99 1009.3
20190526122020 44 24 0.0 0.0 0.00 0.07 0.01 99 1009.3
20190526120518 44 45 0.0 0.0 0.00 0.07 0.01 99 1009.2
20190526115020 43 78 0.0 1.0 0.00 0.07 0.01 99 1009.1
20190526113518 43 151 0.0 2.0 0.00 0.07 0.01 99 1009.1
20190526112020 42 154 0.0 2.0 0.00 0.07 0.01 99 1009.2
20190526110518 42 15 0.0 1.0 0.00 0.07 0.01 99 1009.3
20190526105020 43 337 0.0 0.0 0.00 0.07 0.01 99 1009.3
20190526103518 43 15 0.0 2.0 0.00 0.07 0.01 99 1009.3
20190526102022 43 138 0.0 2.0 0.00 0.07 0.01 99 1009.4
20190526100518 43 179 0.0 2.0 0.01 0.07 0.01 99 1009.6
20190526095020 43 202 0.0 1.0 0.01 0.07 0.01 99 1009.6
20190526093518 43 260 1.0 3.0 0.01 0.07 0.01 98 1009.5
20190526092020 42 55 0.0 2.0 0.01 0.07 0.00 98 1009.7
20190526090518 42 151 0.0 2.0 0.00 0.06 0.00 98 1009.6
20190526085020 42 157 0.0 1.0 0.00 0.06 0.00 98 1009.8
20190526083519 42 157 0.0 1.0 0.00 0.06 0.00 98 1009.7
20190526080517 42 157 0.0 1.0 0.00 0.06 0.00 98 1010.0
20190526075020 42 159 1.0 2.0 0.00 0.06 0.00 98 1010.0
20190526073518 42 180 0.0 0.0 0.00 0.06 0.00 98 1010.0
20190526072020 42 180 0.0 1.0 0.00 0.06 0.00 98 1010.0
20190526070518 42 180 0.0 1.0 0.00 0.06 0.00 98 1010.0
20190526065020 41 158 0.0 1.0 0.00 0.06 0.06 97 1009.8
20190526063521 41 100 0.0 3.0 0.00 0.06 0.06 96 1009.8
20190526062020 42 112 0.0 1.0 0.00 0.06 0.06 96 1009.9
20190526060517 43 143 1.0 4.0 0.00 0.06 0.06 97 1010.0
20190526055021 44 87 0.0 3.0 0.00 0.06 0.06 97 1010.2
20190526053518 44 4 0.0 1.0 0.00 0.06 0.06 97 1010.2
20190526052020 44 337 0.0 2.0 0.00 0.06 0.06 96 1010.1
20190526050520 44 337 0.0 1.0 0.00 0.06 0.06 96 1010.3
20190526045020 45 337 0.0 1.0 0.00 0.06 0.06 96 1010.4
20190526043518 45 59 0.0 1.0 0.00 0.06 0.06 96 1010.4
20190526042020 45 67 0.0 0.0 0.00 0.06 0.06 95 1010.4
20190526040532 45 67 0.0 0.0 0.01 0.06 0.06 95 1010.4
20190526035021 45 67 0.0 0.0 0.01 0.06 0.06 95 1010.3
20190526033518 45 67 0.0 0.0 0.02 0.06 0.06 94 1010.2
20190526032020 45 67 0.0 1.0 0.02 0.06 0.05 94 1010.3
20190526030519 45 67 0.0 1.0 0.01 0.05 0.05 93 1010.4
20190526025021 45 67 0.0 2.0 0.01 0.05 0.04 92 1010.4
20190526023519 46 50 0.0 2.0 0.00 0.04 0.04 92 1010.4
20190526022021 46 35 1.0 4.0 0.01 0.04 0.04 91 1010.4
20190526020518 47 67 0.0 3.0 0.02 0.04 0.04 90 1010.6
20190526015021 46 66 0.0 3.0 0.03 0.04 0.04 88 1010.6
20190526013518 46 223 0.0 3.0 0.04 0.04 0.03 86 1010.7
20190526012021 46 255 0.0 3.0 0.03 0.03 0.02 83 1010.7
20190526010518 47 281 3.0 7.0 0.02 0.02 0.01 80 1010.7
20190526005020 47 290 4.0 8.0 0.01 0.01 0.00 78 1010.8
20190526003518 48 299 3.0 7.0 0.00 0.00 0.00 75 1011.0
20190526002023 48 261 3.0 11.0 0.00 0.00 0.00 73 1011.2
20190526000518 49 275 3.0 8.0 0.00 0.00 0.00 71 1011.3
20190525235021 50 265 3.0 9.0 0.00 0.00 0.00 71 1011.4
20190525233519 50 256 4.0 11.0 0.00 0.00 0.00 72 1011.4
20190525232020 50 275 3.0 9.0 0.00 0.00 0.00 72 1011.4
20190525225021 50 320 2.0 7.0 0.00 0.00 0.00 74 1011.7
20190525223518 50 3 3.0 7.0 0.00 0.00 0.00 75 1011.7
20190525222021 50 325 4.0 8.0 0.00 0.00 0.00 72 1011.8
20190525220517 51 314 4.0 11.0 0.00 0.00 0.00 70 1011.8
20190525215020 51 295 3.0 9.0 0.00 0.00 0.00 70 1011.8
20190525213518 51 284 4.0 12.0 0.00 0.00 0.00 68 1011.8
20190525212020 52 243 6.0 20.0 0.00 0.00 0.00 65 1012.1
20190525210517 54 284 6.0 17.0 0.00 0.00 0.00 65 1011.8
20190525205021 53 282 5.0 10.0 0.00 0.00 0.00 65 1012.1
20190525203518 52 254 5.0 16.0 0.00 0.00 0.00 65 1012.5
20190525202020 52 238 5.0 14.0 0.00 0.00 0.00 64 1012.8
20190525200518 53 228 6.0 15.0 0.00 0.00 0.00 61 1012.8
20190525195020 54 222 8.0 17.0 0.00 0.00 0.00 60 1012.8
20190525193518 55 225 5.0 12.0 0.00 0.00 0.00 61 1012.9
20190525192021 54 224 5.0 15.0 0.00 0.00 0.00 60 1013.0
20190525190518 54 230 6.0 17.0 0.00 0.00 0.00 60 1013.2
20190525185021 54 228 7.0 16.0 0.00 0.00 0.00 60 1013.4
20190525183517 54 225 7.0 18.0 0.00 0.00 0.00 59 1013.4
20190525182020 55 222 7.0 18.0 0.00 0.00 0.00 59 1013.4
20190525180518 55 223 7.0 15.0 0.00 0.00 0.00 59 1013.5
20190525175021 55 234 5.0 15.0 0.00 0.00 0.00 58 1013.5
20190525173518 56 259 5.0 16.0 0.00 0.00 0.00 58 1013.6
20190525172020 54 213 6.0 14.0 0.00 0.00 0.00 61 1013.6
20190525170518 53 241 4.0 12.0 0.00 0.00 0.00 63 1013.8
20190525163518 53 271 4.0 9.0 0.00 0.01 0.00 64 1014.1